sensor_id;sensor_type;location;lat;lon;timestamp;temperature;humidity
31783;DHT22;18351;47.560;9.708;2022-10-16T00:00:43;14.40;99.90
31783;DHT22;18351;47.560;9.708;2022-10-16T00:03:08;14.40;99.90
31783;DHT22;18351;47.560;9.708;2022-10-16T00:05:38;14.40;99.90
31783;DHT22;18351;47.560;9.708;2022-10-16T00:08:04;14.40;99.90
31783;DHT22;18351;47.560;9.708;2022-10-16T00:10:30;14.40;99.90
31783;DHT22;18351;47.560;9.708;2022-10-16T00:12:55;14.40;99.90
31783;DHT22;18351;47.560;9.708;2022-10-16T00:15:21;14.40;99.90
31783;DHT22;18351;47.560;9.708;2022-10-16T00:17:46;14.40;99.90
31783;DHT22;18351;47.560;9.708;2022-10-16T00:20:12;14.40;99.90
31783;DHT22;18351;47.560;9.708;2022-10-16T00:22:37;14.30;99.90
31783;DHT22;18351;47.560;9.708;2022-10-16T00:25:02;14.40;99.90
31783;DHT22;18351;47.560;9.708;2022-10-16T00:27:28;14.40;99.90
31783;DHT22;18351;47.560;9.708;2022-10-16T00:29:53;14.40;99.90
31783;DHT22;18351;47.560;9.708;2022-10-16T00:32:19;14.40;99.90
31783;DHT22;18351;47.560;9.708;2022-10-16T00:34:45;14.50;99.90
31783;DHT22;18351;47.560;9.708;2022-10-16T00:37:10;14.50;99.90
31783;DHT22;18351;47.560;9.708;2022-10-16T00:39:36;14.50;99.90
31783;DHT22;18351;47.560;9.708;2022-10-16T00:42:02;14.50;99.90
31783;DHT22;18351;47.560;9.708;2022-10-16T00:47:18;14.50;99.90
31783;DHT22;18351;47.560;9.708;2022-10-16T00:49:45;14.50;99.90
31783;DHT22;18351;47.560;9.708;2022-10-16T00:52:11;14.60;99.90
31783;DHT22;18351;47.560;9.708;2022-10-16T00:54:37;14.50;99.90
31783;DHT22;18351;47.560;9.708;2022-10-16T00:57:04;14.60;99.90
31783;DHT22;18351;47.560;9.708;2022-10-16T00:59:31;14.60;99.90
31783;DHT22;18351;47.560;9.708;2022-10-16T01:01:57;14.70;99.90
31783;DHT22;18351;47.560;9.708;2022-10-16T01:04:23;14.60;99.90
31783;DHT22;18351;47.560;9.708;2022-10-16T01:09:36;14.80;99.90
31783;DHT22;18351;47.560;9.708;2022-10-16T01:12:08;14.80;99.90
31783;DHT22;18351;47.560;9.708;2022-10-16T01:14:45;14.80;99.90
31783;DHT22;18351;47.560;9.708;2022-10-16T01:17:15;14.90;99.90
31783;DHT22;18351;47.560;9.708;2022-10-16T01:19:46;14.90;99.90
31783;DHT22;18351;47.560;9.708;2022-10-16T01:22:15;15.00;99.90
31783;DHT22;18351;47.560;9.708;2022-10-16T01:24:44;14.90;99.90
31783;DHT22;18351;47.560;9.708;2022-10-16T01:27:29;14.90;99.90
31783;DHT22;18351;47.560;9.708;2022-10-16T01:29:56;14.90;99.90
31783;DHT22;18351;47.560;9.708;2022-10-16T01:35:02;15.00;99.90
31783;DHT22;18351;47.560;9.708;2022-10-16T01:37:31;14.90;99.90
31783;DHT22;18351;47.560;9.708;2022-10-16T01:39:58;15.00;99.90
31783;DHT22;18351;47.560;9.708;2022-10-16T01:42:25;15.00;99.90
31783;DHT22;18351;47.560;9.708;2022-10-16T01:44:52;15.00;99.90
31783;DHT22;18351;47.560;9.708;2022-10-16T01:47:18;15.00;99.90
31783;DHT22;18351;47.560;9.708;2022-10-16T01:49:47;15.00;99.90
31783;DHT22;18351;47.560;9.708;2022-10-16T01:52:15;15.00;99.90
31783;DHT22;18351;47.560;9.708;2022-10-16T01:54:42;15.00;99.90
31783;DHT22;18351;47.560;9.708;2022-10-16T01:57:08;15.00;99.90
31783;DHT22;18351;47.560;9.708;2022-10-16T01:59:36;15.00;99.90
31783;DHT22;18351;47.560;9.708;2022-10-16T02:02:04;15.00;99.90
31783;DHT22;18351;47.560;9.708;2022-10-16T02:04:32;14.90;99.90
31783;DHT22;18351;47.560;9.708;2022-10-16T02:06:58;14.90;99.90
31783;DHT22;18351;47.560;9.708;2022-10-16T02:09:23;15.00;99.90
31783;DHT22;18351;47.560;9.708;2022-10-16T02:11:50;15.00;99.90
31783;DHT22;18351;47.560;9.708;2022-10-16T02:14:16;15.00;99.90
31783;DHT22;18351;47.560;9.708;2022-10-16T02:16:42;15.00;99.90
31783;DHT22;18351;47.560;9.708;2022-10-16T02:19:08;15.00;99.90
31783;DHT22;18351;47.560;9.708;2022-10-16T02:24:12;15.00;99.90
31783;DHT22;18351;47.560;9.708;2022-10-16T02:26:51;15.00;99.90
31783;DHT22;18351;47.560;9.708;2022-10-16T02:29:20;15.00;99.90
31783;DHT22;18351;47.560;9.708;2022-10-16T02:31:47;15.00;99.90
31783;DHT22;18351;47.560;9.708;2022-10-16T02:34:14;14.90;99.90
31783;DHT22;18351;47.560;9.708;2022-10-16T02:36:41;14.80;99.90
31783;DHT22;18351;47.560;9.708;2022-10-16T02:39:07;14.80;99.90
31783;DHT22;18351;47.560;9.708;2022-10-16T02:41:33;14.80;99.90
31783;DHT22;18351;47.560;9.708;2022-10-16T02:43:59;14.80;99.90
31783;DHT22;18351;47.560;9.708;2022-10-16T02:46:24;14.80;99.90
31783;DHT22;18351;47.560;9.708;2022-10-16T02:48:50;14.80;99.90
31783;DHT22;18351;47.560;9.708;2022-10-16T02:51:15;14.80;99.90
31783;DHT22;18351;47.560;9.708;2022-10-16T02:53:41;14.80;99.90
31783;DHT22;18351;47.560;9.708;2022-10-16T02:56:06;14.70;99.90
31783;DHT22;18351;47.560;9.708;2022-10-16T02:58:32;14.70;99.90
31783;DHT22;18351;47.560;9.708;2022-10-16T03:00:57;14.70;99.90
31783;DHT22;18351;47.560;9.708;2022-10-16T03:03:23;14.80;99.90
31783;DHT22;18351;47.560;9.708;2022-10-16T03:05:48;14.80;99.90
31783;DHT22;18351;47.560;9.708;2022-10-16T03:08:14;14.80;99.90
31783;DHT22;18351;47.560;9.708;2022-10-16T03:10:39;14.80;99.90
31783;DHT22;18351;47.560;9.708;2022-10-16T03:13:05;14.80;99.90
31783;DHT22;18351;47.560;9.708;2022-10-16T03:15:30;14.80;99.90
31783;DHT22;18351;47.560;9.708;2022-10-16T03:17:59;14.70;99.90
31783;DHT22;18351;47.560;9.708;2022-10-16T03:20:24;14.70;99.90
31783;DHT22;18351;47.560;9.708;2022-10-16T03:22:50;14.70;99.90
31783;DHT22;18351;47.560;9.708;2022-10-16T03:25:15;14.70;99.90
31783;DHT22;18351;47.560;9.708;2022-10-16T03:27:41;14.70;99.90
31783;DHT22;18351;47.560;9.708;2022-10-16T03:30:07;14.70;99.90
31783;DHT22;18351;47.560;9.708;2022-10-16T03:32:32;14.60;99.90
31783;DHT22;18351;47.560;9.708;2022-10-16T03:34:58;14.60;99.90
31783;DHT22;18351;47.560;9.708;2022-10-16T03:37:23;14.60;99.90
31783;DHT22;18351;47.560;9.708;2022-10-16T03:39:49;14.60;99.90
31783;DHT22;18351;47.560;9.708;2022-10-16T03:42:14;14.60;99.90
31783;DHT22;18351;47.560;9.708;2022-10-16T03:44:40;14.50;99.90
31783;DHT22;18351;47.560;9.708;2022-10-16T03:47:05;14.50;99.90
31783;DHT22;18351;47.560;9.708;2022-10-16T03:49:31;14.50;99.90
31783;DHT22;18351;47.560;9.708;2022-10-16T03:51:56;14.50;99.90
31783;DHT22;18351;47.560;9.708;2022-10-16T03:54:22;14.40;99.90
31783;DHT22;18351;47.560;9.708;2022-10-16T03:56:47;14.50;99.90
31783;DHT22;18351;47.560;9.708;2022-10-16T03:59:13;14.50;99.90
31783;DHT22;18351;47.560;9.708;2022-10-16T04:01:38;14.60;99.90
31783;DHT22;18351;47.560;9.708;2022-10-16T04:04:04;14.60;99.90
31783;DHT22;18351;47.560;9.708;2022-10-16T04:06:29;14.70;99.90
31783;DHT22;18351;47.560;9.708;2022-10-16T04:08:55;14.70;99.90
31783;DHT22;18351;47.560;9.708;2022-10-16T04:11:21;14.70;99.90
31783;DHT22;18351;47.560;9.708;2022-10-16T04:13:46;14.70;99.90
31783;DHT22;18351;47.560;9.708;2022-10-16T04:16:12;14.70;99.90
31783;DHT22;18351;47.560;9.708;2022-10-16T04:18:37;14.60;99.90
31783;DHT22;18351;47.560;9.708;2022-10-16T04:21:04;14.60;99.90
31783;DHT22;18351;47.560;9.708;2022-10-16T04:23:29;14.60;99.90
31783;DHT22;18351;47.560;9.708;2022-10-16T04:25:55;14.50;99.90
31783;DHT22;18351;47.560;9.708;2022-10-16T04:28:20;14.50;99.90
31783;DHT22;18351;47.560;9.708;2022-10-16T04:30:46;14.40;99.90
31783;DHT22;18351;47.560;9.708;2022-10-16T04:33:11;14.40;99.90
31783;DHT22;18351;47.560;9.708;2022-10-16T04:35:38;14.30;99.90
31783;DHT22;18351;47.560;9.708;2022-10-16T04:38:03;14.30;99.90
31783;DHT22;18351;47.560;9.708;2022-10-16T04:40:29;14.20;99.90
31783;DHT22;18351;47.560;9.708;2022-10-16T04:42:54;14.20;99.90
31783;DHT22;18351;47.560;9.708;2022-10-16T04:45:20;14.20;99.90
31783;DHT22;18351;47.560;9.708;2022-10-16T04:47:45;14.10;99.90
31783;DHT22;18351;47.560;9.708;2022-10-16T04:50:10;14.10;99.90
31783;DHT22;18351;47.560;9.708;2022-10-16T04:52:36;14.10;99.90
31783;DHT22;18351;47.560;9.708;2022-10-16T04:55:02;14.00;99.90
31783;DHT22;18351;47.560;9.708;2022-10-16T04:57:28;14.00;99.90
31783;DHT22;18351;47.560;9.708;2022-10-16T04:59:54;14.00;99.90
31783;DHT22;18351;47.560;9.708;2022-10-16T05:02:20;14.00;99.90
31783;DHT22;18351;47.560;9.708;2022-10-16T05:04:45;14.00;99.90
31783;DHT22;18351;47.560;9.708;2022-10-16T05:07:11;14.00;99.90
31783;DHT22;18351;47.560;9.708;2022-10-16T05:09:36;14.00;99.90
31783;DHT22;18351;47.560;9.708;2022-10-16T05:12:02;14.00;99.90
31783;DHT22;18351;47.560;9.708;2022-10-16T05:14:28;14.00;99.90
31783;DHT22;18351;47.560;9.708;2022-10-16T05:16:54;14.10;99.90
31783;DHT22;18351;47.560;9.708;2022-10-16T05:19:19;14.10;99.90
31783;DHT22;18351;47.560;9.708;2022-10-16T05:21:45;14.10;99.90
31783;DHT22;18351;47.560;9.708;2022-10-16T05:24:10;14.10;99.90
31783;DHT22;18351;47.560;9.708;2022-10-16T05:26:36;14.10;99.90
31783;DHT22;18351;47.560;9.708;2022-10-16T05:29:01;14.20;99.90
31783;DHT22;18351;47.560;9.708;2022-10-16T05:31:28;14.20;99.90
31783;DHT22;18351;47.560;9.708;2022-10-16T05:33:57;14.20;99.90
31783;DHT22;18351;47.560;9.708;2022-10-16T05:36:23;14.20;99.90
31783;DHT22;18351;47.560;9.708;2022-10-16T05:38:50;14.30;99.90
31783;DHT22;18351;47.560;9.708;2022-10-16T05:41:15;14.30;99.90
31783;DHT22;18351;47.560;9.708;2022-10-16T05:43:46;14.40;99.90
31783;DHT22;18351;47.560;9.708;2022-10-16T05:46:12;14.40;99.90
31783;DHT22;18351;47.560;9.708;2022-10-16T05:48:37;14.50;99.90
31783;DHT22;18351;47.560;9.708;2022-10-16T05:51:04;14.60;99.90
31783;DHT22;18351;47.560;9.708;2022-10-16T05:53:31;14.60;99.90
31783;DHT22;18351;47.560;9.708;2022-10-16T05:55:57;14.60;99.90
31783;DHT22;18351;47.560;9.708;2022-10-16T05:58:22;14.50;99.90
31783;DHT22;18351;47.560;9.708;2022-10-16T06:00:55;14.50;99.90
31783;DHT22;18351;47.560;9.708;2022-10-16T06:03:20;14.50;99.90
31783;DHT22;18351;47.560;9.708;2022-10-16T06:05:46;14.60;99.90
31783;DHT22;18351;47.560;9.708;2022-10-16T06:08:11;14.60;99.90
31783;DHT22;18351;47.560;9.708;2022-10-16T06:10:37;14.60;99.90
31783;DHT22;18351;47.560;9.708;2022-10-16T06:13:02;14.60;99.90
31783;DHT22;18351;47.560;9.708;2022-10-16T06:15:28;14.60;99.90
31783;DHT22;18351;47.560;9.708;2022-10-16T06:17:53;14.70;99.90
31783;DHT22;18351;47.560;9.708;2022-10-16T06:20:19;14.70;99.90
31783;DHT22;18351;47.560;9.708;2022-10-16T06:22:44;14.80;99.90
31783;DHT22;18351;47.560;9.708;2022-10-16T06:25:10;14.80;99.90
31783;DHT22;18351;47.560;9.708;2022-10-16T06:27:35;14.90;99.90
31783;DHT22;18351;47.560;9.708;2022-10-16T06:30:01;14.90;99.90
31783;DHT22;18351;47.560;9.708;2022-10-16T06:32:27;14.80;99.90
31783;DHT22;18351;47.560;9.708;2022-10-16T06:34:52;14.80;99.90
31783;DHT22;18351;47.560;9.708;2022-10-16T06:37:18;14.80;99.90
31783;DHT22;18351;47.560;9.708;2022-10-16T06:39:43;14.70;99.90
31783;DHT22;18351;47.560;9.708;2022-10-16T06:42:08;14.70;99.90
31783;DHT22;18351;47.560;9.708;2022-10-16T06:44:34;14.60;99.90
31783;DHT22;18351;47.560;9.708;2022-10-16T06:46:59;14.60;99.90
31783;DHT22;18351;47.560;9.708;2022-10-16T06:49:25;14.60;99.90
31783;DHT22;18351;47.560;9.708;2022-10-16T06:51:50;14.50;99.90
31783;DHT22;18351;47.560;9.708;2022-10-16T06:54:16;14.60;99.90
31783;DHT22;18351;47.560;9.708;2022-10-16T06:56:43;14.70;99.90
31783;DHT22;18351;47.560;9.708;2022-10-16T06:59:08;14.70;99.90
31783;DHT22;18351;47.560;9.708;2022-10-16T07:01:34;14.80;99.90
31783;DHT22;18351;47.560;9.708;2022-10-16T07:03:59;14.90;99.90
31783;DHT22;18351;47.560;9.708;2022-10-16T07:06:25;15.00;99.90
31783;DHT22;18351;47.560;9.708;2022-10-16T07:08:51;15.10;99.90
31783;DHT22;18351;47.560;9.708;2022-10-16T07:11:21;15.30;99.90
31783;DHT22;18351;47.560;9.708;2022-10-16T07:13:47;15.50;99.90
31783;DHT22;18351;47.560;9.708;2022-10-16T07:16:19;15.70;99.90
31783;DHT22;18351;47.560;9.708;2022-10-16T07:18:45;15.80;99.90
31783;DHT22;18351;47.560;9.708;2022-10-16T07:21:12;15.90;99.90
31783;DHT22;18351;47.560;9.708;2022-10-16T07:23:38;15.90;99.90
31783;DHT22;18351;47.560;9.708;2022-10-16T07:26:04;16.10;99.90
31783;DHT22;18351;47.560;9.708;2022-10-16T07:28:30;16.20;99.90
31783;DHT22;18351;47.560;9.708;2022-10-16T07:30:59;16.30;99.90
31783;DHT22;18351;47.560;9.708;2022-10-16T07:33:25;16.50;99.90
31783;DHT22;18351;47.560;9.708;2022-10-16T07:35:51;16.60;99.90
31783;DHT22;18351;47.560;9.708;2022-10-16T07:38:17;16.70;99.90
31783;DHT22;18351;47.560;9.708;2022-10-16T07:40:42;16.70;99.90
31783;DHT22;18351;47.560;9.708;2022-10-16T07:43:08;16.80;99.90
31783;DHT22;18351;47.560;9.708;2022-10-16T07:45:33;16.90;99.90
31783;DHT22;18351;47.560;9.708;2022-10-16T07:47:59;16.90;99.90
31783;DHT22;18351;47.560;9.708;2022-10-16T07:50:24;17.00;99.90
31783;DHT22;18351;47.560;9.708;2022-10-16T07:52:50;17.10;99.90
31783;DHT22;18351;47.560;9.708;2022-10-16T07:55:15;17.10;99.90
31783;DHT22;18351;47.560;9.708;2022-10-16T07:57:41;17.20;99.90
31783;DHT22;18351;47.560;9.708;2022-10-16T08:00:06;17.30;99.90
31783;DHT22;18351;47.560;9.708;2022-10-16T08:02:32;17.40;99.90
31783;DHT22;18351;47.560;9.708;2022-10-16T08:04:58;17.50;99.90
31783;DHT22;18351;47.560;9.708;2022-10-16T08:07:23;17.60;99.90
31783;DHT22;18351;47.560;9.708;2022-10-16T08:09:49;17.60;99.90
31783;DHT22;18351;47.560;9.708;2022-10-16T08:12:15;17.60;99.90
31783;DHT22;18351;47.560;9.708;2022-10-16T08:14:41;17.60;99.90
31783;DHT22;18351;47.560;9.708;2022-10-16T08:17:06;17.50;99.90
31783;DHT22;18351;47.560;9.708;2022-10-16T08:19:31;17.50;99.90
31783;DHT22;18351;47.560;9.708;2022-10-16T08:21:59;17.40;99.90
31783;DHT22;18351;47.560;9.708;2022-10-16T08:24:25;17.30;99.90
31783;DHT22;18351;47.560;9.708;2022-10-16T08:26:53;17.20;99.90
31783;DHT22;18351;47.560;9.708;2022-10-16T08:29:18;17.20;99.90
31783;DHT22;18351;47.560;9.708;2022-10-16T08:31:44;17.20;99.90
31783;DHT22;18351;47.560;9.708;2022-10-16T08:34:09;17.20;99.90
31783;DHT22;18351;47.560;9.708;2022-10-16T08:36:35;17.20;99.90
31783;DHT22;18351;47.560;9.708;2022-10-16T08:39:00;17.30;99.90
31783;DHT22;18351;47.560;9.708;2022-10-16T08:43:59;17.30;99.90
31783;DHT22;18351;47.560;9.708;2022-10-16T08:46:35;17.30;99.90
31783;DHT22;18351;47.560;9.708;2022-10-16T08:49:03;17.40;99.90
31783;DHT22;18351;47.560;9.708;2022-10-16T08:51:34;17.30;99.90
31783;DHT22;18351;47.560;9.708;2022-10-16T08:54:04;17.30;99.90
31783;DHT22;18351;47.560;9.708;2022-10-16T08:56:30;17.30;99.90
31783;DHT22;18351;47.560;9.708;2022-10-16T08:58:57;17.30;99.90
31783;DHT22;18351;47.560;9.708;2022-10-16T09:01:22;17.40;99.90
31783;DHT22;18351;47.560;9.708;2022-10-16T09:16:28;17.40;99.90
31783;DHT22;18351;47.560;9.708;2022-10-16T09:19:01;17.50;99.90
31783;DHT22;18351;47.560;9.708;2022-10-16T09:21:30;17.70;99.90
31783;DHT22;18351;47.560;9.708;2022-10-16T09:24:09;18.00;99.90
31783;DHT22;18351;47.560;9.708;2022-10-16T09:26:36;18.10;99.90
31783;DHT22;18351;47.560;9.708;2022-10-16T09:29:02;18.40;99.90
31783;DHT22;18351;47.560;9.708;2022-10-16T09:31:28;18.50;99.90
31783;DHT22;18351;47.560;9.708;2022-10-16T09:33:55;18.70;99.90
31783;DHT22;18351;47.560;9.708;2022-10-16T09:36:22;18.90;99.90
31783;DHT22;18351;47.560;9.708;2022-10-16T09:38:49;19.10;99.90
31783;DHT22;18351;47.560;9.708;2022-10-16T09:41:16;19.30;99.90
31783;DHT22;18351;47.560;9.708;2022-10-16T09:43:47;19.50;99.90
31783;DHT22;18351;47.560;9.708;2022-10-16T09:46:29;19.70;99.90
31783;DHT22;18351;47.560;9.708;2022-10-16T09:48:56;19.80;99.90
31783;DHT22;18351;47.560;9.708;2022-10-16T09:51:27;19.90;99.90
31783;DHT22;18351;47.560;9.708;2022-10-16T09:53:57;20.00;99.90
31783;DHT22;18351;47.560;9.708;2022-10-16T09:56:32;20.20;99.90
31783;DHT22;18351;47.560;9.708;2022-10-16T09:58:59;20.30;99.90
31783;DHT22;18351;47.560;9.708;2022-10-16T10:02:10;20.40;99.90
31783;DHT22;18351;47.560;9.708;2022-10-16T10:04:14;20.50;99.90
31783;DHT22;18351;47.560;9.708;2022-10-16T10:06:43;20.50;99.90
31783;DHT22;18351;47.560;9.708;2022-10-16T10:09:19;20.50;99.90
31783;DHT22;18351;47.560;9.708;2022-10-16T10:11:56;20.50;99.90
31783;DHT22;18351;47.560;9.708;2022-10-16T10:14:30;20.50;99.90
31783;DHT22;18351;47.560;9.708;2022-10-16T10:19:37;20.60;99.90
31783;DHT22;18351;47.560;9.708;2022-10-16T10:24:56;20.60;99.90
31783;DHT22;18351;47.560;9.708;2022-10-16T10:27:25;20.50;99.90
31783;DHT22;18351;47.560;9.708;2022-10-16T10:30:01;20.60;99.90
31783;DHT22;18351;47.560;9.708;2022-10-16T10:37:34;20.60;99.90
31783;DHT22;18351;47.560;9.708;2022-10-16T10:45:47;20.90;99.90
31783;DHT22;18351;47.560;9.708;2022-10-16T10:48:17;21.00;99.90
31783;DHT22;18351;47.560;9.708;2022-10-16T11:01:13;21.50;99.90
31783;DHT22;18351;47.560;9.708;2022-10-16T11:06:11;21.60;99.90
31783;DHT22;18351;47.560;9.708;2022-10-16T11:08:41;21.70;99.90
31783;DHT22;18351;47.560;9.708;2022-10-16T11:11:17;21.80;99.90
31783;DHT22;18351;47.560;9.708;2022-10-16T11:13:50;21.80;99.90
31783;DHT22;18351;47.560;9.708;2022-10-16T11:16:20;21.80;99.90
31783;DHT22;18351;47.560;9.708;2022-10-16T11:21:50;21.90;99.90
31783;DHT22;18351;47.560;9.708;2022-10-16T11:24:20;21.90;99.90
31783;DHT22;18351;47.560;9.708;2022-10-16T11:26:47;22.00;99.90
31783;DHT22;18351;47.560;9.708;2022-10-16T11:29:17;22.10;99.90
31783;DHT22;18351;47.560;9.708;2022-10-16T11:31:49;22.10;99.90
31783;DHT22;18351;47.560;9.708;2022-10-16T11:36:49;22.10;99.90
31783;DHT22;18351;47.560;9.708;2022-10-16T11:39:26;22.20;99.90
31783;DHT22;18351;47.560;9.708;2022-10-16T11:41:53;22.20;99.90
31783;DHT22;18351;47.560;9.708;2022-10-16T11:44:27;22.30;99.90
31783;DHT22;18351;47.560;9.708;2022-10-16T11:47:01;22.30;99.90
31783;DHT22;18351;47.560;9.708;2022-10-16T11:49:27;22.40;99.90
31783;DHT22;18351;47.560;9.708;2022-10-16T11:54:24;22.50;99.90
31783;DHT22;18351;47.560;9.708;2022-10-16T11:56:54;22.60;99.90
31783;DHT22;18351;47.560;9.708;2022-10-16T12:01:51;22.80;99.90
31783;DHT22;18351;47.560;9.708;2022-10-16T12:11:46;22.90;98.40
31783;DHT22;18351;47.560;9.708;2022-10-16T12:16:50;22.90;95.10
31783;DHT22;18351;47.560;9.708;2022-10-16T12:19:16;23.10;96.00
31783;DHT22;18351;47.560;9.708;2022-10-16T12:21:42;23.20;95.60
31783;DHT22;18351;47.560;9.708;2022-10-16T12:26:53;23.50;96.20
31783;DHT22;18351;47.560;9.708;2022-10-16T12:29:23;23.60;95.00
31783;DHT22;18351;47.560;9.708;2022-10-16T12:31:52;23.70;95.30
31783;DHT22;18351;47.560;9.708;2022-10-16T12:36:49;24.00;96.60
31783;DHT22;18351;47.560;9.708;2022-10-16T12:39:21;24.10;98.40
31783;DHT22;18351;47.560;9.708;2022-10-16T12:41:47;24.10;98.40
31783;DHT22;18351;47.560;9.708;2022-10-16T12:44:25;24.30;96.80
31783;DHT22;18351;47.560;9.708;2022-10-16T12:46:53;24.30;96.10
31783;DHT22;18351;47.560;9.708;2022-10-16T12:51:46;24.10;94.10
31783;DHT22;18351;47.560;9.708;2022-10-16T12:54:34;24.10;94.00
31783;DHT22;18351;47.560;9.708;2022-10-16T12:59:55;24.00;92.70
31783;DHT22;18351;47.560;9.708;2022-10-16T13:17:51;24.70;90.70
31783;DHT22;18351;47.560;9.708;2022-10-16T13:20:21;24.80;91.10
31783;DHT22;18351;47.560;9.708;2022-10-16T13:25:34;24.90;94.20
31783;DHT22;18351;47.560;9.708;2022-10-16T13:28:11;25.00;94.10
31783;DHT22;18351;47.560;9.708;2022-10-16T13:30:41;24.90;92.40
31783;DHT22;18351;47.560;9.708;2022-10-16T13:33:21;24.90;94.20
31783;DHT22;18351;47.560;9.708;2022-10-16T13:35:50;24.90;95.50
31783;DHT22;18351;47.560;9.708;2022-10-16T13:38:20;24.80;95.80
31783;DHT22;18351;47.560;9.708;2022-10-16T13:40:49;24.80;95.60
31783;DHT22;18351;47.560;9.708;2022-10-16T13:43:16;24.90;96.50
31783;DHT22;18351;47.560;9.708;2022-10-16T13:45:51;24.90;96.60
31783;DHT22;18351;47.560;9.708;2022-10-16T13:48:17;24.80;96.50
31783;DHT22;18351;47.560;9.708;2022-10-16T13:50:42;24.80;97.10
31783;DHT22;18351;47.560;9.708;2022-10-16T13:53:14;24.90;97.50
31783;DHT22;18351;47.560;9.708;2022-10-16T13:55:40;24.90;96.90
31783;DHT22;18351;47.560;9.708;2022-10-16T13:58:11;24.90;97.10
31783;DHT22;18351;47.560;9.708;2022-10-16T14:00:37;24.90;97.40
31783;DHT22;18351;47.560;9.708;2022-10-16T14:03:03;24.90;97.40
31783;DHT22;18351;47.560;9.708;2022-10-16T14:05:30;24.80;97.10
31783;DHT22;18351;47.560;9.708;2022-10-16T14:07:55;24.80;97.20
31783;DHT22;18351;47.560;9.708;2022-10-16T14:10:23;24.60;96.70
31783;DHT22;18351;47.560;9.708;2022-10-16T14:13:05;24.50;95.90
31783;DHT22;18351;47.560;9.708;2022-10-16T14:15:32;24.40;95.50
31783;DHT22;18351;47.560;9.708;2022-10-16T14:17:58;24.20;96.10
31783;DHT22;18351;47.560;9.708;2022-10-16T14:20:25;24.20;96.70
31783;DHT22;18351;47.560;9.708;2022-10-16T14:22:58;24.10;97.60
31783;DHT22;18351;47.560;9.708;2022-10-16T14:25:25;24.00;98.30
31783;DHT22;18351;47.560;9.708;2022-10-16T14:28:37;23.90;98.20
31783;DHT22;18351;47.560;9.708;2022-10-16T14:30:37;24.00;98.00
31783;DHT22;18351;47.560;9.708;2022-10-16T14:33:21;24.00;98.40
31783;DHT22;18351;47.560;9.708;2022-10-16T14:35:56;24.00;98.00
31783;DHT22;18351;47.560;9.708;2022-10-16T14:38:24;23.90;97.50
31783;DHT22;18351;47.560;9.708;2022-10-16T14:40:50;23.90;97.50
31783;DHT22;18351;47.560;9.708;2022-10-16T14:43:37;23.80;97.70
31783;DHT22;18351;47.560;9.708;2022-10-16T14:46:03;23.80;98.30
31783;DHT22;18351;47.560;9.708;2022-10-16T14:48:29;23.70;98.60
31783;DHT22;18351;47.560;9.708;2022-10-16T14:50:55;23.60;99.10
31783;DHT22;18351;47.560;9.708;2022-10-16T14:53:20;23.60;98.60
31783;DHT22;18351;47.560;9.708;2022-10-16T14:55:46;23.50;98.90
31783;DHT22;18351;47.560;9.708;2022-10-16T14:58:19;23.50;98.40
31783;DHT22;18351;47.560;9.708;2022-10-16T15:00:45;23.40;98.50
31783;DHT22;18351;47.560;9.708;2022-10-16T15:03:11;23.30;98.50
31783;DHT22;18351;47.560;9.708;2022-10-16T15:05:36;23.20;99.20
31783;DHT22;18351;47.560;9.708;2022-10-16T15:08:02;23.10;99.30
31783;DHT22;18351;47.560;9.708;2022-10-16T15:10:29;23.10;99.60
31783;DHT22;18351;47.560;9.708;2022-10-16T15:12:55;23.00;99.90
31783;DHT22;18351;47.560;9.708;2022-10-16T15:15:35;22.90;99.90
31783;DHT22;18351;47.560;9.708;2022-10-16T15:18:01;22.80;99.90
31783;DHT22;18351;47.560;9.708;2022-10-16T15:20:28;22.70;99.90
31783;DHT22;18351;47.560;9.708;2022-10-16T15:22:55;22.60;99.90
31783;DHT22;18351;47.560;9.708;2022-10-16T15:25:55;22.40;99.90
31783;DHT22;18351;47.560;9.708;2022-10-16T15:28:13;22.30;99.90
31783;DHT22;18351;47.560;9.708;2022-10-16T15:30:39;22.10;99.90
31783;DHT22;18351;47.560;9.708;2022-10-16T15:33:05;21.90;99.90
31783;DHT22;18351;47.560;9.708;2022-10-16T15:35:35;21.70;99.90
31783;DHT22;18351;47.560;9.708;2022-10-16T15:38:00;21.50;99.90
31783;DHT22;18351;47.560;9.708;2022-10-16T15:40:26;21.30;99.90
31783;DHT22;18351;47.560;9.708;2022-10-16T15:42:51;21.20;99.90
31783;DHT22;18351;47.560;9.708;2022-10-16T15:45:17;21.00;99.90
31783;DHT22;18351;47.560;9.708;2022-10-16T15:47:44;20.90;99.90
31783;DHT22;18351;47.560;9.708;2022-10-16T15:50:10;20.80;99.90
31783;DHT22;18351;47.560;9.708;2022-10-16T15:52:37;20.70;99.90
31783;DHT22;18351;47.560;9.708;2022-10-16T15:55:05;20.60;99.90
31783;DHT22;18351;47.560;9.708;2022-10-16T15:57:30;20.50;99.90
31783;DHT22;18351;47.560;9.708;2022-10-16T15:59:56;20.40;99.90
31783;DHT22;18351;47.560;9.708;2022-10-16T16:02:21;20.30;99.90
31783;DHT22;18351;47.560;9.708;2022-10-16T16:04:47;20.20;99.90
31783;DHT22;18351;47.560;9.708;2022-10-16T16:07:12;20.10;99.90
31783;DHT22;18351;47.560;9.708;2022-10-16T16:09:38;20.00;99.90
31783;DHT22;18351;47.560;9.708;2022-10-16T16:12:03;19.90;99.90
31783;DHT22;18351;47.560;9.708;2022-10-16T16:14:29;19.70;99.90
31783;DHT22;18351;47.560;9.708;2022-10-16T16:16:55;19.60;99.90
31783;DHT22;18351;47.560;9.708;2022-10-16T16:19:20;19.50;99.90
31783;DHT22;18351;47.560;9.708;2022-10-16T16:21:46;19.40;99.90
31783;DHT22;18351;47.560;9.708;2022-10-16T16:24:12;19.30;99.90
31783;DHT22;18351;47.560;9.708;2022-10-16T16:26:37;19.10;99.90
31783;DHT22;18351;47.560;9.708;2022-10-16T16:29:05;19.00;99.90
31783;DHT22;18351;47.560;9.708;2022-10-16T16:31:31;18.80;99.90
31783;DHT22;18351;47.560;9.708;2022-10-16T16:33:57;18.70;99.90
31783;DHT22;18351;47.560;9.708;2022-10-16T16:36:24;18.50;99.90
31783;DHT22;18351;47.560;9.708;2022-10-16T16:38:49;18.40;99.90
31783;DHT22;18351;47.560;9.708;2022-10-16T16:41:18;18.40;99.90
31783;DHT22;18351;47.560;9.708;2022-10-16T16:43:45;18.20;99.90
31783;DHT22;18351;47.560;9.708;2022-10-16T16:46:10;18.10;99.90
31783;DHT22;18351;47.560;9.708;2022-10-16T16:48:36;18.00;99.90
31783;DHT22;18351;47.560;9.708;2022-10-16T16:51:12;17.70;99.90
31783;DHT22;18351;47.560;9.708;2022-10-16T16:53:42;17.50;99.90
31783;DHT22;18351;47.560;9.708;2022-10-16T16:56:07;17.40;99.90
31783;DHT22;18351;47.560;9.708;2022-10-16T16:58:33;17.30;99.90
31783;DHT22;18351;47.560;9.708;2022-10-16T17:00:59;17.30;99.90
31783;DHT22;18351;47.560;9.708;2022-10-16T17:03:33;17.20;99.90
31783;DHT22;18351;47.560;9.708;2022-10-16T17:06:03;17.20;99.90
31783;DHT22;18351;47.560;9.708;2022-10-16T17:08:29;17.00;99.90
31783;DHT22;18351;47.560;9.708;2022-10-16T17:10:55;16.80;99.90
31783;DHT22;18351;47.560;9.708;2022-10-16T17:13:21;16.70;99.90
31783;DHT22;18351;47.560;9.708;2022-10-16T17:15:47;16.50;99.90